createdAt,value
2018-11-07T00:00:11.012Z,84.22
2018-11-07T00:01:10.966Z,84.63
2018-11-07T00:02:10.958Z,84.08
2018-11-07T00:03:10.944Z,83.47
2018-11-07T00:04:10.934Z,83.37
2018-11-07T00:05:10.946Z,83.47
2018-11-07T00:06:10.930Z,83.06
2018-11-07T00:07:10.899Z,82.92
2018-11-07T00:08:11.012Z,82.92
2018-11-07T00:09:10.878Z,83.26
2018-11-07T00:10:10.869Z,82.86
2018-11-07T00:11:10.877Z,82.61
2018-11-07T00:12:10.852Z,82.41
2018-11-07T00:13:10.832Z,81.80
2018-11-07T00:14:10.829Z,81.39
2018-11-07T00:15:10.813Z,81.39
2018-11-07T00:16:10.824Z,81.49
2018-11-07T00:17:10.790Z,81.18
2018-11-07T00:18:10.783Z,81.39
2018-11-07T00:19:10.765Z,81.09
2018-11-07T00:20:10.757Z,81.18
2018-11-07T00:21:10.767Z,81.18
2018-11-07T00:22:10.735Z,81.96
2018-11-07T00:23:10.723Z,81.25
2018-11-07T00:24:10.710Z,81.56
2018-11-07T00:25:10.708Z,81.59
2018-11-07T00:26:10.762Z,81.80
2018-11-07T00:27:10.676Z,81.49
2018-11-07T00:28:10.668Z,81.90
2018-11-07T00:29:10.654Z,81.70
2018-11-07T00:30:10.683Z,81.80
2018-11-07T00:31:10.657Z,81.59
2018-11-07T00:32:10.621Z,80.98
2018-11-07T00:33:10.609Z,81.59
2018-11-07T00:34:10.597Z,81.29
2018-11-07T00:35:10.678Z,81.59
2018-11-07T00:36:10.600Z,81.09
2018-11-07T00:37:10.573Z,82.00
2018-11-07T00:38:10.552Z,81.29
2018-11-07T00:39:10.542Z,80.78
2018-11-07T00:40:10.531Z,81.90
2018-11-07T00:41:10.543Z,81.39
2018-11-07T00:42:10.557Z,81.18
2018-11-07T00:43:10.513Z,81.90
2018-11-07T00:44:10.488Z,80.88
2018-11-07T00:45:10.475Z,80.68
2018-11-07T00:46:10.487Z,80.68
2018-11-07T00:47:10.454Z,80.78
2018-11-07T00:48:10.444Z,80.78
2018-11-07T00:49:10.438Z,80.68
2018-11-07T00:50:10.418Z,80.57
2018-11-07T00:51:10.435Z,80.47
2018-11-07T00:52:10.398Z,80.37
2018-11-07T00:53:10.385Z,80.47
2018-11-07T00:54:10.375Z,80.37
2018-11-07T00:55:10.362Z,80.47
2018-11-07T00:56:10.387Z,80.78
2018-11-07T00:57:10.340Z,80.27
2018-11-07T00:58:10.428Z,80.98
2018-11-07T00:59:10.317Z,80.37
2018-11-07T01:00:10.308Z,80.47
2018-11-07T01:01:10.319Z,80.57
2018-11-07T01:02:10.295Z,80.27
2018-11-07T01:03:10.273Z,80.30
2018-11-07T01:04:10.262Z,80.47
2018-11-07T01:05:10.257Z,80.68
2018-11-07T01:06:10.266Z,80.68
2018-11-07T01:07:10.228Z,80.57
2018-11-07T01:08:10.223Z,80.57
2018-11-07T01:09:10.207Z,80.88
2018-11-07T01:10:10.194Z,80.82
2018-11-07T01:11:10.215Z,80.71
2018-11-07T01:12:10.176Z,80.82
2018-11-07T01:13:10.162Z,81.23
2018-11-07T01:14:10.166Z,81.94
2018-11-07T01:15:10.147Z,81.12
2018-11-07T01:16:10.152Z,81.84
2018-11-07T01:17:10.123Z,82.04
2018-11-07T01:18:10.103Z,81.87
2018-11-07T01:19:10.096Z,82.08
2018-11-07T01:20:10.100Z,81.37
2018-11-07T01:21:10.095Z,81.16
2018-11-07T01:22:10.075Z,81.57
2018-11-07T01:23:10.052Z,81.26
2018-11-07T01:24:10.040Z,81.67
2018-11-07T01:25:10.026Z,81.26
2018-11-07T01:26:10.045Z,81.46
2018-11-07T01:27:10.004Z,81.77
2018-11-07T01:28:10.026Z,81.37
2018-11-07T01:29:09.984Z,81.37
2018-11-07T01:30:09.970Z,81.46
2018-11-07T01:31:09.987Z,81.46
2018-11-07T01:32:09.967Z,81.77
2018-11-07T01:33:09.940Z,81.10
2018-11-07T01:34:09.930Z,81.71
2018-11-07T01:35:09.916Z,81.91
2018-11-07T01:36:09.927Z,82.22
2018-11-07T01:37:09.892Z,81.71
2018-11-07T01:38:09.884Z,81.60
2018-11-07T01:39:09.877Z,81.91
2018-11-07T01:40:09.863Z,81.71
2018-11-07T01:41:09.887Z,82.12
2018-11-07T01:42:09.953Z,82.42
2018-11-07T01:43:09.826Z,82.63
2018-11-07T01:44:09.814Z,82.63
2018-11-07T01:45:09.810Z,82.63
2018-11-07T01:46:09.821Z,83.18
2018-11-07T01:47:09.783Z,82.87
2018-11-07T01:48:09.772Z,83.07
2018-11-07T01:49:09.759Z,82.87
2018-11-07T01:50:09.749Z,82.77
2018-11-07T01:51:09.781Z,82.56
2018-11-07T01:52:09.724Z,83.18
2018-11-07T01:53:09.714Z,83.38
2018-11-07T01:54:09.707Z,83.18
2018-11-07T01:55:09.692Z,83.48
2018-11-07T01:56:09.706Z,82.97
2018-11-07T01:57:09.682Z,83.18
2018-11-07T01:58:09.659Z,83.38
2018-11-07T01:59:09.650Z,83.18
2018-11-07T02:00:09.638Z,83.28
2018-11-07T02:01:09.649Z,83.48
2018-11-07T02:02:09.617Z,83.48
2018-11-07T02:03:09.610Z,83.48
2018-11-07T02:04:09.590Z,83.38
2018-11-07T02:05:09.579Z,83.79
2018-11-07T02:06:09.569Z,84.00
2018-11-07T02:07:09.586Z,83.79
2018-11-07T02:08:09.547Z,83.59
2018-11-07T02:09:09.547Z,83.38
2018-11-07T02:10:09.525Z,83.32
2018-11-07T02:11:09.515Z,83.28
2018-11-07T02:12:09.526Z,83.48
2018-11-07T02:13:09.495Z,83.18
2018-11-07T02:14:09.481Z,83.48
2018-11-07T02:15:09.479Z,84.14
2018-11-07T02:16:09.458Z,84.14
2018-11-07T02:17:09.469Z,84.44
2018-11-07T02:18:09.438Z,84.24
2018-11-07T02:19:09.423Z,84.65
2018-11-07T02:20:09.413Z,84.44
2018-11-07T02:21:09.411Z,83.62
2018-11-07T02:22:09.416Z,84.03
2018-11-07T02:23:09.381Z,83.42
2018-11-07T02:24:09.377Z,83.93
2018-11-07T02:25:09.357Z,83.83
2018-11-07T02:26:09.351Z,83.73
2018-11-07T02:27:09.375Z,84.24
2018-11-07T02:28:09.322Z,83.73
2018-11-07T02:29:09.312Z,83.32
2018-11-07T02:30:09.304Z,83.62
2018-11-07T02:31:09.291Z,83.52
2018-11-07T02:32:09.307Z,83.73
2018-11-07T02:33:09.268Z,83.83
2018-11-07T02:34:09.256Z,83.73
2018-11-07T02:35:09.244Z,84.34
2018-11-07T02:36:09.235Z,84.07
2018-11-07T02:37:09.285Z,84.48
2018-11-07T02:38:09.239Z,84.85
2018-11-07T02:39:09.201Z,84.89
2018-11-07T02:40:09.193Z,84.99
2018-11-07T02:41:09.177Z,84.89
2018-11-07T02:42:09.213Z,85.10
2018-11-07T02:43:09.160Z,84.89
2018-11-07T02:44:09.144Z,84.58
2018-11-07T02:45:09.136Z,84.17
2018-11-07T02:46:09.128Z,84.07
2018-11-07T02:47:09.137Z,84.75
2018-11-07T02:48:09.098Z,84.79
2018-11-07T02:49:09.096Z,84.79
2018-11-07T02:50:09.088Z,84.58
2018-11-07T02:51:09.067Z,85.20
2018-11-07T02:52:09.086Z,85.20
2018-11-07T02:53:09.094Z,85.10
2018-11-07T02:54:09.033Z,85.20
2018-11-07T02:55:09.024Z,85.10
2018-11-07T02:56:09.015Z,85.30
2018-11-07T02:57:09.025Z,85.30
2018-11-07T02:58:09.000Z,84.38
2018-11-07T02:59:08.979Z,85.20
2018-11-07T03:00:08.965Z,84.69
2018-11-07T03:01:09.035Z,84.48
2018-11-07T03:02:08.968Z,84.69
2018-11-07T03:03:08.933Z,84.69
2018-11-07T03:04:08.934Z,84.48
2018-11-07T03:05:08.911Z,84.69
2018-11-07T03:06:08.902Z,84.48
2018-11-07T03:07:08.912Z,84.83
2018-11-07T03:08:08.878Z,84.89
2018-11-07T03:09:08.864Z,84.93
2018-11-07T03:10:08.879Z,84.83
2018-11-07T03:11:08.843Z,84.42
2018-11-07T03:12:08.857Z,84.83
2018-11-07T03:13:08.822Z,85.24
2018-11-07T03:14:08.808Z,85.38
2018-11-07T03:15:08.798Z,85.34
2018-11-07T03:16:08.799Z,85.24
2018-11-07T03:17:08.798Z,85.58
2018-11-07T03:18:08.764Z,85.28
2018-11-07T03:19:08.787Z,85.48
2018-11-07T03:20:08.745Z,85.48
2018-11-07T03:21:08.734Z,85.48
2018-11-07T03:22:08.753Z,85.64
2018-11-07T03:23:08.710Z,85.79
2018-11-07T03:24:08.705Z,86.51
2018-11-07T03:25:08.687Z,87.02
2018-11-07T03:26:08.676Z,86.61
2018-11-07T03:27:08.688Z,87.43
2018-11-07T03:28:08.664Z,86.51
2018-11-07T03:29:08.647Z,86.98
2018-11-07T03:30:08.633Z,86.98
2018-11-07T03:31:08.631Z,85.96
2018-11-07T03:32:08.633Z,85.99
2018-11-07T03:33:08.598Z,86.26
2018-11-07T03:34:08.610Z,85.85
2018-11-07T03:35:08.579Z,85.64
2018-11-07T03:36:08.566Z,85.96
2018-11-07T03:37:08.580Z,85.75
2018-11-07T03:38:08.541Z,85.71
2018-11-07T03:39:08.532Z,85.55
2018-11-07T03:40:08.526Z,85.75
2018-11-07T03:41:08.508Z,85.96
2018-11-07T03:42:08.521Z,85.71
2018-11-07T03:43:08.491Z,85.75
2018-11-07T03:44:08.475Z,85.20
2018-11-07T03:45:08.465Z,85.30
2018-11-07T03:46:08.458Z,85.34
2018-11-07T03:47:08.465Z,85.24
2018-11-07T03:48:08.431Z,85.44
2018-11-07T03:49:08.444Z,85.55
2018-11-07T03:50:08.406Z,85.34
2018-11-07T03:51:08.402Z,85.14
2018-11-07T03:52:08.421Z,85.44
2018-11-07T03:53:08.484Z,85.10
2018-11-07T03:54:08.363Z,85.03
2018-11-07T03:55:08.355Z,85.34
2018-11-07T03:56:08.340Z,85.44
2018-11-07T03:57:08.353Z,84.79
2018-11-07T03:58:08.329Z,84.79
2018-11-07T03:59:08.306Z,84.79
2018-11-07T04:00:08.298Z,84.89
2018-11-07T04:01:08.287Z,84.58
2018-11-07T04:02:08.300Z,84.07
2018-11-07T04:03:08.273Z,83.66
2018-11-07T04:04:08.259Z,83.66
2018-11-07T04:05:08.242Z,83.97
2018-11-07T04:06:08.227Z,83.11
2018-11-07T04:07:08.226Z,83.25
2018-11-07T04:08:08.235Z,83.36
2018-11-07T04:09:08.197Z,82.95
2018-11-07T04:10:08.197Z,82.91
2018-11-07T04:11:08.174Z,82.91
2018-11-07T04:12:08.190Z,83.42
2018-11-07T04:13:08.155Z,83.42
2018-11-07T04:14:08.141Z,83.42
2018-11-07T04:15:08.130Z,83.62
2018-11-07T04:16:08.118Z,82.29
2018-11-07T04:17:08.118Z,82.60
2018-11-07T04:18:08.117Z,82.20
2018-11-07T04:19:08.093Z,81.68
2018-11-07T04:20:08.080Z,81.68
2018-11-07T04:21:08.061Z,81.48
2018-11-07T04:22:08.053Z,81.38
2018-11-07T04:23:08.088Z,81.38
2018-11-07T04:24:08.027Z,81.88
2018-11-07T04:25:08.019Z,81.27
2018-11-07T04:26:08.006Z,81.79
2018-11-07T04:27:07.999Z,82.09
2018-11-07T04:28:08.014Z,81.99
2018-11-07T04:29:07.994Z,81.79
2018-11-07T04:30:07.960Z,82.09
2018-11-07T04:31:07.958Z,81.82
2018-11-07T04:32:07.942Z,81.93
2018-11-07T04:33:07.953Z,81.41
2018-11-07T04:34:07.916Z,81.93
2018-11-07T04:35:07.915Z,81.62
2018-11-07T04:36:07.894Z,81.31
2018-11-07T04:37:07.891Z,81.62
2018-11-07T04:38:07.895Z,81.82
2018-11-07T04:39:07.934Z,81.62
2018-11-07T04:40:07.850Z,81.41
2018-11-07T04:41:07.845Z,82.23
2018-11-07T04:42:07.828Z,81.51
2018-11-07T04:43:07.840Z,81.82
2018-11-07T04:44:07.805Z,81.93
2018-11-07T04:45:07.794Z,81.51
2018-11-07T04:46:07.782Z,81.41
2018-11-07T04:47:07.781Z,81.41
2018-11-07T04:48:07.799Z,81.93
2018-11-07T04:49:07.749Z,81.41
2018-11-07T04:50:07.739Z,81.62
2018-11-07T04:51:07.731Z,81.72
2018-11-07T04:52:07.720Z,81.62
2018-11-07T04:53:07.737Z,81.65
2018-11-07T04:54:07.692Z,81.76
2018-11-07T04:55:07.682Z,81.76
2018-11-07T04:56:07.672Z,81.96
2018-11-07T04:57:07.660Z,82.07
2018-11-07T04:58:07.675Z,81.86
2018-11-07T04:59:07.651Z,81.86
2018-11-07T05:00:07.686Z,82.07
2018-11-07T05:01:07.615Z,81.76
2018-11-07T05:02:07.605Z,81.86
2018-11-07T05:03:07.615Z,81.96
2018-11-07T05:04:07.580Z,81.96
2018-11-07T05:05:07.578Z,82.17
2018-11-07T05:06:07.561Z,81.96
2018-11-07T05:07:07.547Z,81.15
2018-11-07T05:08:07.561Z,81.04
2018-11-07T05:09:07.525Z,82.17
2018-11-07T05:10:07.516Z,81.24
2018-11-07T05:11:07.515Z,81.15
2018-11-07T05:12:07.490Z,81.24
2018-11-07T05:13:07.505Z,81.24
2018-11-07T05:14:07.473Z,81.59
2018-11-07T05:15:07.459Z,81.86
2018-11-07T05:16:07.448Z,81.96
2018-11-07T05:17:07.449Z,80.94
2018-11-07T05:18:07.449Z,81.35
2018-11-07T05:19:07.418Z,82.17
2018-11-07T05:20:07.404Z,82.17
2018-11-07T05:21:07.391Z,82.17
2018-11-07T05:22:07.381Z,81.86
2018-11-07T05:23:07.403Z,82.17
2018-11-07T05:24:07.356Z,82.10
2018-11-07T05:25:07.351Z,81.86
2018-11-07T05:26:07.352Z,81.15
2018-11-07T05:27:07.327Z,81.86
2018-11-07T05:28:07.337Z,81.56
2018-11-07T05:29:07.316Z,82.00
2018-11-07T05:30:07.292Z,82.10
2018-11-07T05:31:07.281Z,82.51
2018-11-07T05:32:07.360Z,82.51
2018-11-07T05:33:07.281Z,82.62
2018-11-07T05:34:07.246Z,82.51
2018-11-07T05:35:07.243Z,82.51
2018-11-07T05:36:07.227Z,83.54
2018-11-07T05:37:07.216Z,83.23
2018-11-07T05:38:07.228Z,83.23
2018-11-07T05:39:07.189Z,83.13
2018-11-07T05:40:07.183Z,83.13
2018-11-07T05:41:07.247Z,83.03
2018-11-07T05:42:07.159Z,83.54
2018-11-07T05:43:07.173Z,83.23
2018-11-07T05:44:07.136Z,83.17
2018-11-07T05:45:07.124Z,83.23
2018-11-07T05:46:07.114Z,83.74
2018-11-07T05:47:07.113Z,83.13
2018-11-07T05:48:07.116Z,83.23
2018-11-07T05:49:07.204Z,82.92
2018-11-07T05:50:07.068Z,83.03
2018-11-07T05:51:07.057Z,83.54
2018-11-07T05:52:07.049Z,83.33
2018-11-07T05:53:07.067Z,83.13
2018-11-07T05:54:07.023Z,83.33
2018-11-07T05:55:07.018Z,83.37
2018-11-07T05:56:07.001Z,83.47
2018-11-07T05:57:06.991Z,84.09
2018-11-07T05:58:07.002Z,84.19
2018-11-07T05:59:06.976Z,83.47
2018-11-07T06:00:06.957Z,83.68
2018-11-07T06:01:06.945Z,83.88
2018-11-07T06:02:06.934Z,83.88
2018-11-07T06:03:06.946Z,84.39
2018-11-07T06:04:06.912Z,84.33
2018-11-07T06:05:06.910Z,84.44
2018-11-07T06:06:06.923Z,84.12
2018-11-07T06:07:06.880Z,83.72
2018-11-07T06:08:06.892Z,84.44
2018-11-07T06:09:06.854Z,83.92
2018-11-07T06:10:06.846Z,84.12
2018-11-07T06:11:06.849Z,84.33
2018-11-07T06:12:06.821Z,84.37
2018-11-07T06:13:06.817Z,84.37
2018-11-07T06:14:06.833Z,84.17
2018-11-07T06:15:06.792Z,85.09
2018-11-07T06:16:06.848Z,85.60
2018-11-07T06:17:06.776Z,84.47
2018-11-07T06:18:06.778Z,84.99
2018-11-07T06:19:06.744Z,85.13
2018-11-07T06:20:06.740Z,85.09
2018-11-07T06:21:06.722Z,83.90
2018-11-07T06:22:06.710Z,84.00
2018-11-07T06:23:06.713Z,84.20
2018-11-07T06:24:06.762Z,83.90
2018-11-07T06:25:06.678Z,83.90
2018-11-07T06:26:06.665Z,84.00
2018-11-07T06:27:06.653Z,83.83
2018-11-07T06:28:06.645Z,84.00
2018-11-07T06:29:06.662Z,85.47
2018-11-07T06:30:06.620Z,85.17
2018-11-07T06:31:06.610Z,85.06
2018-11-07T06:32:06.600Z,85.47
2018-11-07T06:33:06.592Z,85.27
2018-11-07T06:34:06.655Z,84.25
2018-11-07T06:35:06.576Z,85.38
2018-11-07T06:36:06.555Z,84.76
2018-11-07T06:37:06.544Z,84.14
2018-11-07T06:38:06.537Z,83.53
2018-11-07T06:39:06.545Z,84.04
2018-11-07T06:40:06.514Z,84.25
2018-11-07T06:41:06.504Z,84.49
2018-11-07T06:42:06.487Z,85.17
2018-11-07T06:43:06.478Z,85.41
2018-11-07T06:44:06.495Z,85.00
2018-11-07T06:45:06.455Z,85.11
2018-11-07T06:46:06.444Z,84.90
2018-11-07T06:47:06.447Z,85.62
2018-11-07T06:48:06.420Z,85.00
2018-11-07T06:49:06.433Z,85.72
2018-11-07T06:50:06.400Z,85.62
2018-11-07T06:51:06.387Z,85.52
2018-11-07T06:52:06.379Z,85.52
2018-11-07T06:53:06.377Z,85.72
2018-11-07T06:54:06.377Z,85.72
2018-11-07T06:55:06.357Z,85.62
2018-11-07T06:56:06.332Z,86.75
2018-11-07T06:57:06.323Z,86.44
2018-11-07T06:58:06.312Z,87.02
2018-11-07T06:59:06.331Z,86.91
2018-11-07T07:00:06.287Z,87.16
2018-11-07T07:01:06.276Z,87.63
2018-11-07T07:02:06.266Z,86.71
2018-11-07T07:03:06.253Z,86.71
2018-11-07T07:04:06.268Z,86.98
2018-11-07T07:05:06.239Z,87.18
2018-11-07T07:06:06.220Z,86.77
2018-11-07T07:07:06.212Z,86.46
2018-11-07T07:08:06.196Z,86.05
2018-11-07T07:09:06.212Z,85.50
2018-11-07T07:10:06.174Z,85.60
2018-11-07T07:11:06.180Z,85.50
2018-11-07T07:12:06.159Z,85.50
2018-11-07T07:13:06.147Z,85.36
2018-11-07T07:14:06.154Z,84.84
2018-11-07T07:15:06.123Z,84.95
2018-11-07T07:16:06.109Z,85.15
2018-11-07T07:17:06.111Z,84.33
2018-11-07T07:18:06.121Z,83.82
2018-11-07T07:19:06.099Z,83.92
2018-11-07T07:20:06.065Z,83.98
2018-11-07T07:21:06.061Z,83.78
2018-11-07T07:22:06.042Z,83.68
2018-11-07T07:23:06.038Z,83.27
2018-11-07T07:24:06.043Z,82.76
2018-11-07T07:25:06.014Z,82.96
2018-11-07T07:26:05.996Z,83.27
2018-11-07T07:27:05.987Z,83.58
2018-11-07T07:28:05.979Z,82.76
2018-11-07T07:29:05.994Z,82.71
2018-11-07T07:30:06.066Z,82.62
2018-11-07T07:31:05.948Z,82.10
2018-11-07T07:32:05.930Z,82.00
2018-11-07T07:33:06.063Z,82.00
2018-11-07T07:34:05.935Z,81.90
2018-11-07T07:35:05.913Z,81.38
2018-11-07T07:36:05.886Z,81.45
2018-11-07T07:37:05.874Z,81.65
2018-11-07T07:38:05.865Z,81.79
2018-11-07T07:39:05.875Z,81.86
2018-11-07T07:40:05.841Z,81.70
2018-11-07T07:41:05.842Z,82.27
2018-11-07T07:42:05.817Z,81.45
2018-11-07T07:43:05.810Z,81.76
2018-11-07T07:44:05.822Z,81.04
2018-11-07T07:45:05.784Z,81.04
2018-11-07T07:46:05.775Z,80.63
2018-11-07T07:47:05.765Z,81.15
2018-11-07T07:48:05.768Z,81.86
2018-11-07T07:49:05.790Z,81.45
2018-11-07T07:50:05.733Z,80.94
2018-11-07T07:51:05.719Z,80.94
2018-11-07T07:52:05.708Z,80.74
2018-11-07T07:53:05.717Z,80.53
2018-11-07T07:54:05.732Z,80.74
2018-11-07T07:55:05.674Z,80.90
2018-11-07T07:56:05.665Z,80.90
2018-11-07T07:57:05.657Z,81.04
2018-11-07T07:58:05.639Z,80.69
2018-11-07T07:59:05.656Z,80.80
2018-11-07T08:00:05.618Z,80.49
2018-11-07T08:01:05.609Z,80.69
2018-11-07T08:02:05.599Z,80.80
2018-11-07T08:03:05.587Z,80.60
2018-11-07T08:04:05.622Z,80.49
2018-11-07T08:05:05.561Z,80.69
2018-11-07T08:06:05.551Z,80.60
2018-11-07T08:07:05.605Z,80.08
2018-11-07T08:08:05.569Z,80.39
2018-11-07T08:09:05.588Z,79.78
2018-11-07T08:10:05.508Z,79.47
2018-11-07T08:11:05.503Z,79.27
2018-11-07T08:12:05.485Z,79.84
2018-11-07T08:13:05.475Z,79.43
2018-11-07T08:14:05.551Z,79.33
2018-11-07T08:15:05.490Z,79.33
2018-11-07T08:16:05.442Z,79.33
2018-11-07T08:17:05.435Z,79.53
2018-11-07T08:18:05.416Z,79.33
2018-11-07T08:19:05.429Z,79.13
2018-11-07T08:20:05.398Z,79.23
2018-11-07T08:21:05.448Z,79.74
2018-11-07T08:22:05.384Z,79.33
2018-11-07T08:23:05.362Z,79.43
2018-11-07T08:24:05.381Z,78.82
2018-11-07T08:25:05.339Z,79.23
2018-11-07T08:26:05.327Z,79.02
2018-11-07T08:27:05.317Z,77.97
2018-11-07T08:28:05.328Z,78.61
2018-11-07T08:29:05.350Z,78.31
2018-11-07T08:30:05.309Z,78.07
2018-11-07T08:31:05.297Z,78.07
2018-11-07T08:32:05.261Z,77.56
2018-11-07T08:33:05.249Z,77.45
2018-11-07T08:34:05.259Z,77.97
2018-11-07T08:35:05.270Z,77.66
2018-11-07T08:36:05.222Z,77.56
2018-11-07T08:37:05.212Z,77.42
2018-11-07T08:38:05.201Z,77.56
2018-11-07T08:39:05.205Z,77.56
2018-11-07T08:40:05.194Z,77.25
2018-11-07T08:41:05.171Z,77.25
2018-11-07T08:42:05.190Z,76.50
2018-11-07T08:43:05.137Z,76.81
2018-11-07T08:44:05.132Z,76.60
2018-11-07T08:45:05.143Z,76.40
2018-11-07T08:46:05.105Z,76.50
2018-11-07T08:47:05.093Z,76.50
2018-11-07T08:48:05.138Z,76.09
2018-11-07T08:49:05.073Z,75.78
2018-11-07T08:50:05.104Z,76.40
2018-11-07T08:51:05.053Z,75.48
2018-11-07T08:52:05.037Z,75.85
2018-11-07T08:53:05.025Z,75.07
2018-11-07T08:54:05.016Z,75.37
2018-11-07T08:55:05.101Z,74.93
2018-11-07T08:56:04.993Z,74.93
2018-11-07T08:57:05.402Z,75.04
2018-11-07T08:58:04.970Z,74.83
2018-11-07T08:59:04.967Z,75.24
2018-11-07T09:00:04.973Z,75.04
2018-11-07T09:01:04.959Z,74.93
2018-11-07T09:02:04.979Z,74.29
2018-11-07T09:03:04.915Z,74.83
2018-11-07T09:04:04.911Z,74.73
2018-11-07T09:05:04.917Z,74.79
2018-11-07T09:06:04.884Z,75.24
2018-11-07T09:07:04.887Z,74.18
2018-11-07T09:08:04.857Z,74.38
2018-11-07T09:09:04.847Z,74.18
2018-11-07T09:10:04.861Z,73.57
2018-11-07T09:11:04.827Z,74.18
2018-11-07T09:12:04.892Z,74.79
2018-11-07T09:13:04.802Z,73.98
2018-11-07T09:14:04.791Z,74.08
2018-11-07T09:15:04.804Z,73.57
2018-11-07T09:16:04.772Z,74.18
2018-11-07T09:17:04.764Z,74.90
2018-11-07T09:18:04.745Z,74.08
2018-11-07T09:19:04.748Z,74.08
2018-11-07T09:20:04.854Z,74.25
2018-11-07T09:21:04.713Z,73.13
2018-11-07T09:22:04.702Z,73.03
2018-11-07T09:23:04.705Z,73.23
2018-11-07T09:24:04.681Z,73.13
2018-11-07T09:25:04.694Z,72.92
2018-11-07T09:26:04.659Z,73.13
2018-11-07T09:27:04.649Z,73.94
2018-11-07T09:28:04.658Z,73.19
2018-11-07T09:29:04.638Z,73.71
2018-11-07T09:30:04.637Z,72.89
2018-11-07T09:31:04.607Z,73.10
2018-11-07T09:32:04.599Z,73.10
2018-11-07T09:33:04.581Z,72.38
2018-11-07T09:34:04.568Z,72.45
2018-11-07T09:35:04.588Z,72.24
2018-11-07T09:36:04.545Z,72.08
2018-11-07T09:37:04.544Z,71.63
2018-11-07T09:38:04.531Z,72.17
2018-11-07T09:39:04.515Z,72.34
2018-11-07T09:40:04.527Z,71.84
2018-11-07T09:41:04.492Z,71.63
2018-11-07T09:42:04.478Z,71.63
2018-11-07T09:43:04.472Z,71.84
2018-11-07T09:44:04.455Z,71.02
2018-11-07T09:45:04.469Z,71.19
2018-11-07T09:46:04.437Z,71.23
2018-11-07T09:47:04.423Z,70.28
2018-11-07T09:48:04.461Z,70.38
2018-11-07T09:49:04.404Z,70.48
2018-11-07T09:50:04.417Z,69.87
2018-11-07T09:51:04.379Z,70.45
2018-11-07T09:52:04.373Z,69.46
2018-11-07T09:53:04.361Z,69.87
2018-11-07T09:54:04.412Z,69.76
2018-11-07T09:55:04.357Z,69.87
2018-11-07T09:56:04.334Z,69.46
2018-11-07T09:57:04.316Z,69.12
2018-11-07T09:58:04.303Z,69.32
2018-11-07T09:59:04.289Z,69.23
2018-11-07T10:00:04.310Z,69.23
2018-11-07T10:01:04.270Z,69.32
2018-11-07T10:02:04.257Z,69.43
2018-11-07T10:03:04.257Z,68.82
2018-11-07T10:04:04.236Z,69.23
2018-11-07T10:05:04.247Z,68.92
2018-11-07T10:06:04.212Z,69.12
2018-11-07T10:07:04.205Z,68.82
2018-11-07T10:08:04.229Z,69.43
2018-11-07T10:09:04.180Z,69.43
2018-11-07T10:10:04.194Z,69.32
2018-11-07T10:11:04.162Z,68.88
2018-11-07T10:12:04.146Z,69.43
2018-11-07T10:13:04.147Z,68.48
2018-11-07T10:14:04.121Z,68.48
2018-11-07T10:15:04.135Z,68.68
2018-11-07T10:16:04.126Z,68.18
2018-11-07T10:17:04.090Z,68.88
2018-11-07T10:18:04.077Z,68.79
2018-11-07T10:19:04.071Z,69.19
2018-11-07T10:20:04.063Z,68.99
2018-11-07T10:21:04.088Z,68.88
2018-11-07T10:22:04.039Z,68.07
2018-11-07T10:23:04.026Z,68.79
2018-11-07T10:24:04.015Z,68.38
2018-11-07T10:25:04.005Z,68.07
2018-11-07T10:26:04.800Z,67.97
2018-11-07T10:27:04.052Z,68.44
2018-11-07T10:28:04.489Z,67.33
2018-11-07T10:29:04.220Z,67.53
2018-11-07T10:30:04.257Z,68.24
2018-11-07T10:31:03.960Z,67.13
2018-11-07T10:32:03.932Z,67.13
2018-11-07T10:33:03.912Z,66.72
2018-11-07T10:34:03.910Z,67.33
2018-11-07T10:35:03.896Z,67.30
2018-11-07T10:36:03.901Z,67.30
2018-11-07T10:37:03.866Z,66.79
2018-11-07T10:38:04.028Z,65.67
2018-11-07T10:39:03.842Z,66.08
2018-11-07T10:40:03.838Z,65.67
2018-11-07T10:41:03.852Z,66.18
2018-11-07T10:42:03.810Z,65.94
2018-11-07T10:43:03.804Z,66.05
2018-11-07T10:44:03.791Z,65.84
2018-11-07T10:45:03.784Z,64.49
2018-11-07T10:46:03.817Z,63.60
2018-11-07T10:47:03.753Z,63.68
2018-11-07T10:48:03.748Z,63.58
2018-11-07T10:49:03.734Z,63.78
2018-11-07T10:50:03.734Z,63.88
2018-11-07T10:51:03.738Z,63.88
2018-11-07T10:52:03.740Z,63.04
2018-11-07T10:53:03.686Z,62.87
2018-11-07T10:54:03.677Z,63.75
2018-11-07T10:55:03.665Z,63.75
2018-11-07T10:56:03.694Z,63.95
2018-11-07T10:57:03.647Z,63.78
2018-11-07T10:58:03.632Z,63.85
2018-11-07T10:59:03.617Z,63.95
2018-11-07T11:00:03.614Z,63.85
2018-11-07T11:01:03.623Z,64.76
2018-11-07T11:02:03.587Z,64.56
2018-11-07T11:03:03.591Z,64.67
2018-11-07T11:04:03.563Z,63.55
2018-11-07T11:05:03.575Z,63.65
2018-11-07T11:06:03.568Z,63.75
2018-11-07T11:07:03.548Z,63.45
2018-11-07T11:08:03.518Z,63.95
2018-11-07T11:09:03.521Z,63.65
2018-11-07T11:10:03.501Z,63.21
2018-11-07T11:11:03.567Z,63.21
2018-11-07T11:12:03.480Z,63.75
2018-11-07T11:13:04.267Z,63.65
2018-11-07T11:14:03.454Z,63.32
2018-11-07T11:15:03.468Z,63.11
2018-11-07T11:16:03.471Z,63.11
2018-11-07T11:17:03.586Z,63.52
2018-11-07T11:18:03.422Z,63.11
2018-11-07T11:19:03.401Z,63.11
2018-11-07T11:20:03.385Z,63.11
2018-11-07T11:21:03.400Z,62.37
2018-11-07T11:22:03.382Z,62.48
2018-11-07T11:23:03.360Z,62.48
2018-11-07T11:24:03.341Z,62.48
2018-11-07T11:25:03.340Z,62.60
2018-11-07T11:26:03.352Z,61.97
2018-11-07T11:27:03.308Z,62.57
2018-11-07T11:28:03.305Z,62.48
2018-11-07T11:29:03.295Z,62.78
2018-11-07T11:30:03.289Z,62.48
2018-11-07T11:31:03.288Z,62.57
2018-11-07T11:32:03.251Z,61.87
2018-11-07T11:33:03.238Z,62.07
2018-11-07T11:34:03.395Z,62.07
2018-11-07T11:35:03.373Z,62.48
2018-11-07T11:36:03.229Z,61.97
2018-11-07T11:37:03.202Z,62.88
2018-11-07T11:38:03.183Z,62.37
2018-11-07T11:39:03.170Z,61.66
2018-11-07T11:40:03.171Z,61.97
2018-11-07T11:41:03.298Z,62.68
2018-11-07T11:42:03.139Z,62.98
2018-11-07T11:43:03.168Z,62.57
2018-11-07T11:44:03.348Z,62.48
2018-11-07T11:45:03.103Z,61.76
2018-11-07T11:46:03.119Z,61.56
2018-11-07T11:47:03.105Z,61.87
2018-11-07T11:48:03.080Z,61.46
2018-11-07T11:49:03.083Z,61.63
2018-11-07T11:50:03.060Z,62.34
2018-11-07T11:51:03.075Z,61.83
2018-11-07T11:52:03.036Z,61.83
2018-11-07T11:53:03.016Z,61.94
2018-11-07T11:54:03.009Z,62.04
2018-11-07T11:55:03.028Z,61.63
2018-11-07T11:56:02.999Z,60.89
2018-11-07T11:57:02.993Z,60.89
2018-11-07T11:58:02.976Z,61.80
2018-11-07T11:59:03.035Z,60.79
2018-11-07T12:00:03.307Z,60.08
2018-11-07T12:01:02.951Z,61.00
2018-11-07T12:02:02.968Z,59.88
2018-11-07T12:03:02.911Z,61.40
2018-11-07T12:04:02.896Z,59.17
2018-11-07T12:05:02.884Z,59.05
2018-11-07T12:06:02.925Z,59.65
2018-11-07T12:07:02.861Z,59.25
2018-11-07T12:08:02.854Z,59.14
2018-11-07T12:09:02.955Z,59.25
2018-11-07T12:10:02.826Z,59.45
2018-11-07T12:11:02.838Z,58.84
2018-11-07T12:12:02.849Z,59.45
2018-11-07T12:13:02.793Z,59.45
2018-11-07T12:14:02.781Z,59.55
2018-11-07T12:15:02.797Z,58.74
2018-11-07T12:16:02.809Z,59.65
2018-11-07T12:17:02.755Z,59.45
2018-11-07T12:18:02.753Z,59.85
2018-11-07T12:19:02.729Z,60.46
2018-11-07T12:20:02.714Z,60.16
2018-11-07T12:21:02.755Z,60.36
2018-11-07T12:22:02.737Z,60.26
2018-11-07T12:23:02.681Z,60.06
2018-11-07T12:24:02.672Z,61.17
2018-11-07T12:25:02.703Z,60.26
2018-11-07T12:26:02.646Z,60.26
2018-11-07T12:27:02.757Z,61.07
2018-11-07T12:28:02.626Z,60.66
2018-11-07T12:29:02.619Z,60.46
2018-11-07T12:30:02.671Z,61.37
2018-11-07T12:31:02.613Z,60.77
2018-11-07T12:32:02.611Z,59.95
2018-11-07T12:33:02.569Z,61.07
2018-11-07T12:34:02.564Z,61.07
2018-11-07T12:35:02.555Z,60.26
2018-11-07T12:36:02.551Z,60.06
2018-11-07T12:37:02.552Z,60.86
2018-11-07T12:38:02.517Z,60.97
2018-11-07T12:39:02.503Z,59.95
2018-11-07T12:40:02.492Z,60.26
2018-11-07T12:41:02.480Z,60.84
2018-11-07T12:42:02.494Z,60.03
2018-11-07T12:43:02.462Z,60.66
2018-11-07T12:44:02.464Z,60.86
2018-11-07T12:45:02.439Z,59.85
2018-11-07T12:46:02.431Z,60.97
2018-11-07T12:47:02.448Z,60.97
2018-11-07T12:48:02.402Z,61.37
2018-11-07T12:49:02.393Z,61.17
2018-11-07T12:50:02.532Z,61.47
2018-11-07T12:51:02.376Z,61.07
2018-11-07T12:52:02.381Z,60.57